<?xml version="1.0" encoding="UTF-8" standalone="no" ?>
<gpx xmlns="http://www.topografix.com/GPX/1/1" xmlns:xsi="http://www.w3.org/2001/XMLSchema-instance" xsi:schemaLocation="http://www.topografix.com/GPX/1/1 http://www.topografix.com/GPX/1/1/gpx.xsd" version="1.1" creator="VisuGPX - https://www.visugpx.com">
  <metadata>
    <name>Saint-Laurent Boucle à partir de la mairie vers Barbin</name>
  </metadata>
  <trk>
    <name><![CDATA[12987680-st laurent st laurent rs2]]></name>
    <trkseg>
      <trkpt lat="46.959" lon="-0.88678">
        <ele>112</ele>
        <time>2021-05-03T15:56:04Z</time>
      </trkpt>
      <trkpt lat="46.95936" lon="-0.88666">
        <ele>112</ele>
        <time>2021-05-03T15:56:34Z</time>
      </trkpt>
      <trkpt lat="46.95946" lon="-0.88708">
        <ele>112</ele>
        <time>2021-05-03T15:56:58Z</time>
      </trkpt>
      <trkpt lat="46.95961" lon="-0.88704">
        <ele>113</ele>
        <time>2021-05-03T15:57:10Z</time>
      </trkpt>
      <trkpt lat="46.95976" lon="-0.88698">
        <ele>113</ele>
        <time>2021-05-03T15:57:23Z</time>
      </trkpt>
      <trkpt lat="46.95993" lon="-0.88697">
        <ele>113</ele>
        <time>2021-05-03T15:57:36Z</time>
      </trkpt>
      <trkpt lat="46.96019" lon="-0.88698">
        <ele>113</ele>
        <time>2021-05-03T15:57:57Z</time>
      </trkpt>
      <trkpt lat="46.96042" lon="-0.88687">
        <ele>112</ele>
        <time>2021-05-03T15:58:16Z</time>
      </trkpt>
      <trkpt lat="46.96052" lon="-0.88698">
        <ele>112</ele>
        <time>2021-05-03T15:58:26Z</time>
      </trkpt>
      <trkpt lat="46.96061" lon="-0.88716">
        <ele>112</ele>
        <time>2021-05-03T15:58:39Z</time>
      </trkpt>
      <trkpt lat="46.96058" lon="-0.88731">
        <ele>112</ele>
        <time>2021-05-03T15:58:47Z</time>
      </trkpt>
      <trkpt lat="46.9609" lon="-0.88743">
        <ele>112</ele>
        <time>2021-05-03T15:59:14Z</time>
      </trkpt>
      <trkpt lat="46.96127" lon="-0.88763">
        <ele>112</ele>
        <time>2021-05-03T15:59:45Z</time>
      </trkpt>
      <trkpt lat="46.96151" lon="-0.8878">
        <ele>112</ele>
        <time>2021-05-03T16:00:06Z</time>
      </trkpt>
      <trkpt lat="46.96176" lon="-0.88798">
        <ele>113</ele>
        <time>2021-05-03T16:00:29Z</time>
      </trkpt>
      <trkpt lat="46.96201" lon="-0.88821">
        <ele>115</ele>
        <time>2021-05-03T16:00:52Z</time>
      </trkpt>
      <trkpt lat="46.96227" lon="-0.88845">
        <ele>116</ele>
        <time>2021-05-03T16:01:17Z</time>
      </trkpt>
      <trkpt lat="46.96259" lon="-0.88879">
        <ele>116</ele>
        <time>2021-05-03T16:01:49Z</time>
      </trkpt>
      <trkpt lat="46.96281" lon="-0.88905">
        <ele>116</ele>
        <time>2021-05-03T16:02:11Z</time>
      </trkpt>
      <trkpt lat="46.96291" lon="-0.88929">
        <ele>115</ele>
        <time>2021-05-03T16:02:27Z</time>
      </trkpt>
      <trkpt lat="46.96308" lon="-0.88956">
        <ele>115</ele>
        <time>2021-05-03T16:02:47Z</time>
      </trkpt>
      <trkpt lat="46.96319" lon="-0.88979">
        <ele>114</ele>
        <time>2021-05-03T16:03:02Z</time>
      </trkpt>
      <trkpt lat="46.96348" lon="-0.89084">
        <ele>113</ele>
        <time>2021-05-03T16:04:04Z</time>
      </trkpt>
      <trkpt lat="46.96346" lon="-0.89131">
        <ele>112</ele>
        <time>2021-05-03T16:04:30Z</time>
      </trkpt>
      <trkpt lat="46.96323" lon="-0.89141">
        <ele>111</ele>
        <time>2021-05-03T16:04:49Z</time>
      </trkpt>
      <trkpt lat="46.96323" lon="-0.89291">
        <ele>110</ele>
        <time>2021-05-03T16:06:11Z</time>
      </trkpt>
      <trkpt lat="46.96325" lon="-0.89367">
        <ele>112</ele>
        <time>2021-05-03T16:06:52Z</time>
      </trkpt>
      <trkpt lat="46.96327" lon="-0.8939">
        <ele>113</ele>
        <time>2021-05-03T16:07:05Z</time>
      </trkpt>
      <trkpt lat="46.96333" lon="-0.89424">
        <ele>115</ele>
        <time>2021-05-03T16:07:24Z</time>
      </trkpt>
      <trkpt lat="46.96329" lon="-0.89458">
        <ele>119</ele>
        <time>2021-05-03T16:07:43Z</time>
      </trkpt>
      <trkpt lat="46.96317" lon="-0.89472">
        <ele>120</ele>
        <time>2021-05-03T16:07:55Z</time>
      </trkpt>
      <trkpt lat="46.96267" lon="-0.89506">
        <ele>119</ele>
        <time>2021-05-03T16:08:40Z</time>
      </trkpt>
      <trkpt lat="46.96241" lon="-0.8953">
        <ele>117</ele>
        <time>2021-05-03T16:09:04Z</time>
      </trkpt>
      <trkpt lat="46.96224" lon="-0.8955">
        <ele>116</ele>
        <time>2021-05-03T16:09:22Z</time>
      </trkpt>
      <trkpt lat="46.96233" lon="-0.89569">
        <ele>116</ele>
        <time>2021-05-03T16:09:34Z</time>
      </trkpt>
      <trkpt lat="46.96323" lon="-0.89649">
        <ele>119</ele>
        <time>2021-05-03T16:10:59Z</time>
      </trkpt>
      <trkpt lat="46.96343" lon="-0.89684">
        <ele>118</ele>
        <time>2021-05-03T16:11:23Z</time>
      </trkpt>
      <trkpt lat="46.96363" lon="-0.89711">
        <ele>118</ele>
        <time>2021-05-03T16:11:45Z</time>
      </trkpt>
      <trkpt lat="46.96426" lon="-0.89763">
        <ele>119</ele>
        <time>2021-05-03T16:12:43Z</time>
      </trkpt>
      <trkpt lat="46.96451" lon="-0.89822">
        <ele>118</ele>
        <time>2021-05-03T16:13:21Z</time>
      </trkpt>
      <trkpt lat="46.96447" lon="-0.89834">
        <ele>117</ele>
        <time>2021-05-03T16:13:28Z</time>
      </trkpt>
      <trkpt lat="46.96445" lon="-0.89845">
        <ele>116</ele>
        <time>2021-05-03T16:13:35Z</time>
      </trkpt>
      <trkpt lat="46.96445" lon="-0.89861">
        <ele>116</ele>
        <time>2021-05-03T16:13:43Z</time>
      </trkpt>
      <trkpt lat="46.96443" lon="-0.89869">
        <ele>115</ele>
        <time>2021-05-03T16:13:48Z</time>
      </trkpt>
      <trkpt lat="46.96445" lon="-0.89895">
        <ele>115</ele>
        <time>2021-05-03T16:14:02Z</time>
      </trkpt>
      <trkpt lat="46.96465" lon="-0.89977">
        <ele>118</ele>
        <time>2021-05-03T16:14:50Z</time>
      </trkpt>
      <trkpt lat="46.9647" lon="-0.89996">
        <ele>119</ele>
        <time>2021-05-03T16:15:01Z</time>
      </trkpt>
      <trkpt lat="46.96467" lon="-0.90059">
        <ele>115</ele>
        <time>2021-05-03T16:15:36Z</time>
      </trkpt>
      <trkpt lat="46.96485" lon="-0.901">
        <ele>113</ele>
        <time>2021-05-03T16:16:02Z</time>
      </trkpt>
      <trkpt lat="46.96484" lon="-0.90109">
        <ele>113</ele>
        <time>2021-05-03T16:16:07Z</time>
      </trkpt>
      <trkpt lat="46.96513" lon="-0.90133">
        <ele>112</ele>
        <time>2021-05-03T16:16:34Z</time>
      </trkpt>
      <trkpt lat="46.9653" lon="-0.9015">
        <ele>112</ele>
        <time>2021-05-03T16:16:50Z</time>
      </trkpt>
      <trkpt lat="46.96567" lon="-0.90155">
        <ele>113</ele>
        <time>2021-05-03T16:17:20Z</time>
      </trkpt>
      <trkpt lat="46.96597" lon="-0.90181">
        <ele>113</ele>
        <time>2021-05-03T16:17:48Z</time>
      </trkpt>
      <trkpt lat="46.96595" lon="-0.90203">
        <ele>112</ele>
        <time>2021-05-03T16:18:00Z</time>
      </trkpt>
      <trkpt lat="46.96622" lon="-0.90229">
        <ele>113</ele>
        <time>2021-05-03T16:18:26Z</time>
      </trkpt>
      <trkpt lat="46.96644" lon="-0.90247">
        <ele>113</ele>
        <time>2021-05-03T16:18:46Z</time>
      </trkpt>
      <trkpt lat="46.96656" lon="-0.90265">
        <ele>112</ele>
        <time>2021-05-03T16:19:00Z</time>
      </trkpt>
      <trkpt lat="46.96682" lon="-0.90288">
        <ele>113</ele>
        <time>2021-05-03T16:19:24Z</time>
      </trkpt>
      <trkpt lat="46.96697" lon="-0.90307">
        <ele>114</ele>
        <time>2021-05-03T16:19:40Z</time>
      </trkpt>
      <trkpt lat="46.96719" lon="-0.9034">
        <ele>115</ele>
        <time>2021-05-03T16:20:05Z</time>
      </trkpt>
      <trkpt lat="46.96722" lon="-0.90395">
        <ele>113</ele>
        <time>2021-05-03T16:20:35Z</time>
      </trkpt>
      <trkpt lat="46.96729" lon="-0.90419">
        <ele>112</ele>
        <time>2021-05-03T16:20:50Z</time>
      </trkpt>
      <trkpt lat="46.96728" lon="-0.90452">
        <ele>111</ele>
        <time>2021-05-03T16:21:08Z</time>
      </trkpt>
      <trkpt lat="46.96733" lon="-0.90467">
        <ele>111</ele>
        <time>2021-05-03T16:21:17Z</time>
      </trkpt>
      <trkpt lat="46.96741" lon="-0.90495">
        <ele>109</ele>
        <time>2021-05-03T16:21:33Z</time>
      </trkpt>
      <trkpt lat="46.96756" lon="-0.90524">
        <ele>108</ele>
        <time>2021-05-03T16:21:53Z</time>
      </trkpt>
      <trkpt lat="46.96767" lon="-0.90539">
        <ele>108</ele>
        <time>2021-05-03T16:22:05Z</time>
      </trkpt>
      <trkpt lat="46.96767" lon="-0.90552">
        <ele>108</ele>
        <time>2021-05-03T16:22:12Z</time>
      </trkpt>
      <trkpt lat="46.96782" lon="-0.90559">
        <ele>108</ele>
        <time>2021-05-03T16:22:25Z</time>
      </trkpt>
      <trkpt lat="46.96799" lon="-0.90549">
        <ele>108</ele>
        <time>2021-05-03T16:22:40Z</time>
      </trkpt>
      <trkpt lat="46.96806" lon="-0.90561">
        <ele>108</ele>
        <time>2021-05-03T16:22:48Z</time>
      </trkpt>
      <trkpt lat="46.96825" lon="-0.90568">
        <ele>108</ele>
        <time>2021-05-03T16:23:04Z</time>
      </trkpt>
      <trkpt lat="46.96829" lon="-0.9058">
        <ele>108</ele>
        <time>2021-05-03T16:23:11Z</time>
      </trkpt>
      <trkpt lat="46.96839" lon="-0.90606">
        <ele>108</ele>
        <time>2021-05-03T16:23:28Z</time>
      </trkpt>
      <trkpt lat="46.96867" lon="-0.9064">
        <ele>110</ele>
        <time>2021-05-03T16:23:57Z</time>
      </trkpt>
      <trkpt lat="46.96888" lon="-0.90671">
        <ele>110</ele>
        <time>2021-05-03T16:24:21Z</time>
      </trkpt>
      <trkpt lat="46.96899" lon="-0.9069">
        <ele>110</ele>
        <time>2021-05-03T16:24:34Z</time>
      </trkpt>
      <trkpt lat="46.96932" lon="-0.90716">
        <ele>112</ele>
        <time>2021-05-03T16:25:04Z</time>
      </trkpt>
      <trkpt lat="46.96938" lon="-0.90735">
        <ele>112</ele>
        <time>2021-05-03T16:25:16Z</time>
      </trkpt>
      <trkpt lat="46.96946" lon="-0.90762">
        <ele>111</ele>
        <time>2021-05-03T16:25:32Z</time>
      </trkpt>
      <trkpt lat="46.96954" lon="-0.90803">
        <ele>111</ele>
        <time>2021-05-03T16:25:55Z</time>
      </trkpt>
      <trkpt lat="46.96964" lon="-0.90825">
        <ele>112</ele>
        <time>2021-05-03T16:26:10Z</time>
      </trkpt>
      <trkpt lat="46.9697" lon="-0.90841">
        <ele>112</ele>
        <time>2021-05-03T16:26:19Z</time>
      </trkpt>
      <trkpt lat="46.96983" lon="-0.90893">
        <ele>113</ele>
        <time>2021-05-03T16:26:50Z</time>
      </trkpt>
      <trkpt lat="46.9699" lon="-0.90912">
        <ele>114</ele>
        <time>2021-05-03T16:27:02Z</time>
      </trkpt>
      <trkpt lat="46.96995" lon="-0.90928">
        <ele>114</ele>
        <time>2021-05-03T16:27:11Z</time>
      </trkpt>
      <trkpt lat="46.96996" lon="-0.90943">
        <ele>114</ele>
        <time>2021-05-03T16:27:19Z</time>
      </trkpt>
      <trkpt lat="46.96998" lon="-0.90956">
        <ele>115</ele>
        <time>2021-05-03T16:27:27Z</time>
      </trkpt>
      <trkpt lat="46.96994" lon="-0.90995">
        <ele>114</ele>
        <time>2021-05-03T16:27:48Z</time>
      </trkpt>
      <trkpt lat="46.97012" lon="-0.91001">
        <ele>117</ele>
        <time>2021-05-03T16:28:03Z</time>
      </trkpt>
      <trkpt lat="46.97013" lon="-0.91013">
        <ele>118</ele>
        <time>2021-05-03T16:28:10Z</time>
      </trkpt>
      <trkpt lat="46.96999" lon="-0.91037">
        <ele>116</ele>
        <time>2021-05-03T16:28:27Z</time>
      </trkpt>
      <trkpt lat="46.96997" lon="-0.91052">
        <ele>116</ele>
        <time>2021-05-03T16:28:35Z</time>
      </trkpt>
      <trkpt lat="46.96998" lon="-0.9107">
        <ele>117</ele>
        <time>2021-05-03T16:28:45Z</time>
      </trkpt>
      <trkpt lat="46.97008" lon="-0.91102">
        <ele>119</ele>
        <time>2021-05-03T16:29:04Z</time>
      </trkpt>
      <trkpt lat="46.97009" lon="-0.91118">
        <ele>119</ele>
        <time>2021-05-03T16:29:13Z</time>
      </trkpt>
      <trkpt lat="46.96999" lon="-0.91148">
        <ele>117</ele>
        <time>2021-05-03T16:29:31Z</time>
      </trkpt>
      <trkpt lat="46.96985" lon="-0.91266">
        <ele>118</ele>
        <time>2021-05-03T16:30:37Z</time>
      </trkpt>
      <trkpt lat="46.96984" lon="-0.91287">
        <ele>118</ele>
        <time>2021-05-03T16:30:48Z</time>
      </trkpt>
      <trkpt lat="46.96979" lon="-0.91303">
        <ele>117</ele>
        <time>2021-05-03T16:30:58Z</time>
      </trkpt>
      <trkpt lat="46.9698" lon="-0.91323">
        <ele>118</ele>
        <time>2021-05-03T16:31:09Z</time>
      </trkpt>
      <trkpt lat="46.96985" lon="-0.91343">
        <ele>119</ele>
        <time>2021-05-03T16:31:20Z</time>
      </trkpt>
      <trkpt lat="46.97005" lon="-0.91361">
        <ele>123</ele>
        <time>2021-05-03T16:31:39Z</time>
      </trkpt>
      <trkpt lat="46.97013" lon="-0.91391">
        <ele>125</ele>
        <time>2021-05-03T16:31:57Z</time>
      </trkpt>
      <trkpt lat="46.97024" lon="-0.91408">
        <ele>127</ele>
        <time>2021-05-03T16:32:10Z</time>
      </trkpt>
      <trkpt lat="46.97022" lon="-0.91451">
        <ele>126</ele>
        <time>2021-05-03T16:32:33Z</time>
      </trkpt>
      <trkpt lat="46.97025" lon="-0.91463">
        <ele>126</ele>
        <time>2021-05-03T16:32:40Z</time>
      </trkpt>
      <trkpt lat="46.97024" lon="-0.91479">
        <ele>125</ele>
        <time>2021-05-03T16:32:49Z</time>
      </trkpt>
      <trkpt lat="46.97025" lon="-0.91495">
        <ele>125</ele>
        <time>2021-05-03T16:32:58Z</time>
      </trkpt>
      <trkpt lat="46.97022" lon="-0.9151">
        <ele>124</ele>
        <time>2021-05-03T16:33:06Z</time>
      </trkpt>
      <trkpt lat="46.97025" lon="-0.91549">
        <ele>123</ele>
        <time>2021-05-03T16:33:28Z</time>
      </trkpt>
      <trkpt lat="46.97013" lon="-0.91564">
        <ele>122</ele>
        <time>2021-05-03T16:33:40Z</time>
      </trkpt>
      <trkpt lat="46.97002" lon="-0.91561">
        <ele>120</ele>
        <time>2021-05-03T16:33:49Z</time>
      </trkpt>
      <trkpt lat="46.9699" lon="-0.91548">
        <ele>119</ele>
        <time>2021-05-03T16:34:01Z</time>
      </trkpt>
      <trkpt lat="46.96981" lon="-0.91532">
        <ele>117</ele>
        <time>2021-05-03T16:34:13Z</time>
      </trkpt>
      <trkpt lat="46.96973" lon="-0.9152">
        <ele>116</ele>
        <time>2021-05-03T16:34:22Z</time>
      </trkpt>
      <trkpt lat="46.96966" lon="-0.91502">
        <ele>114</ele>
        <time>2021-05-03T16:34:33Z</time>
      </trkpt>
      <trkpt lat="46.96962" lon="-0.91494">
        <ele>114</ele>
        <time>2021-05-03T16:34:39Z</time>
      </trkpt>
      <trkpt lat="46.96955" lon="-0.91489">
        <ele>113</ele>
        <time>2021-05-03T16:34:45Z</time>
      </trkpt>
      <trkpt lat="46.96934" lon="-0.9149">
        <ele>108</ele>
        <time>2021-05-03T16:35:02Z</time>
      </trkpt>
      <trkpt lat="46.96918" lon="-0.91489">
        <ele>105</ele>
        <time>2021-05-03T16:35:14Z</time>
      </trkpt>
      <trkpt lat="46.96873" lon="-0.91555">
        <ele>104</ele>
        <time>2021-05-03T16:36:05Z</time>
      </trkpt>
      <trkpt lat="46.96861" lon="-0.91569">
        <ele>103</ele>
        <time>2021-05-03T16:36:18Z</time>
      </trkpt>
      <trkpt lat="46.96842" lon="-0.91598">
        <ele>102</ele>
        <time>2021-05-03T16:36:40Z</time>
      </trkpt>
      <trkpt lat="46.96825" lon="-0.91614">
        <ele>102</ele>
        <time>2021-05-03T16:36:56Z</time>
      </trkpt>
      <trkpt lat="46.96811" lon="-0.91611">
        <ele>102</ele>
        <time>2021-05-03T16:37:07Z</time>
      </trkpt>
      <trkpt lat="46.96801" lon="-0.91606">
        <ele>103</ele>
        <time>2021-05-03T16:37:16Z</time>
      </trkpt>
      <trkpt lat="46.96796" lon="-0.91605">
        <ele>103</ele>
        <time>2021-05-03T16:37:20Z</time>
      </trkpt>
      <trkpt lat="46.96785" lon="-0.91606">
        <ele>103</ele>
        <time>2021-05-03T16:37:28Z</time>
      </trkpt>
      <trkpt lat="46.96777" lon="-0.91614">
        <ele>104</ele>
        <time>2021-05-03T16:37:36Z</time>
      </trkpt>
      <trkpt lat="46.96766" lon="-0.91624">
        <ele>104</ele>
        <time>2021-05-03T16:37:47Z</time>
      </trkpt>
      <trkpt lat="46.96757" lon="-0.9163">
        <ele>104</ele>
        <time>2021-05-03T16:37:54Z</time>
      </trkpt>
      <trkpt lat="46.96732" lon="-0.91604">
        <ele>107</ele>
        <time>2021-05-03T16:38:19Z</time>
      </trkpt>
      <trkpt lat="46.9672" lon="-0.91609">
        <ele>109</ele>
        <time>2021-05-03T16:38:29Z</time>
      </trkpt>
      <trkpt lat="46.96703" lon="-0.91625">
        <ele>110</ele>
        <time>2021-05-03T16:38:45Z</time>
      </trkpt>
      <trkpt lat="46.96684" lon="-0.91626">
        <ele>112</ele>
        <time>2021-05-03T16:39:00Z</time>
      </trkpt>
      <trkpt lat="46.96671" lon="-0.91628">
        <ele>113</ele>
        <time>2021-05-03T16:39:11Z</time>
      </trkpt>
      <trkpt lat="46.96654" lon="-0.91609">
        <ele>117</ele>
        <time>2021-05-03T16:39:28Z</time>
      </trkpt>
      <trkpt lat="46.96647" lon="-0.91597">
        <ele>119</ele>
        <time>2021-05-03T16:39:37Z</time>
      </trkpt>
      <trkpt lat="46.96647" lon="-0.91583">
        <ele>120</ele>
        <time>2021-05-03T16:39:44Z</time>
      </trkpt>
      <trkpt lat="46.96638" lon="-0.91565">
        <ele>123</ele>
        <time>2021-05-03T16:39:56Z</time>
      </trkpt>
      <trkpt lat="46.96626" lon="-0.91546">
        <ele>126</ele>
        <time>2021-05-03T16:40:11Z</time>
      </trkpt>
      <trkpt lat="46.96621" lon="-0.91544">
        <ele>127</ele>
        <time>2021-05-03T16:40:15Z</time>
      </trkpt>
      <trkpt lat="46.96633" lon="-0.91504">
        <ele>129</ele>
        <time>2021-05-03T16:40:39Z</time>
      </trkpt>
      <trkpt lat="46.96642" lon="-0.91476">
        <ele>127</ele>
        <time>2021-05-03T16:40:56Z</time>
      </trkpt>
      <trkpt lat="46.96663" lon="-0.91459">
        <ele>124</ele>
        <time>2021-05-03T16:41:15Z</time>
      </trkpt>
      <trkpt lat="46.9668" lon="-0.91436">
        <ele>122</ele>
        <time>2021-05-03T16:41:33Z</time>
      </trkpt>
      <trkpt lat="46.96703" lon="-0.91437">
        <ele>119</ele>
        <time>2021-05-03T16:41:52Z</time>
      </trkpt>
      <trkpt lat="46.96722" lon="-0.91435">
        <ele>117</ele>
        <time>2021-05-03T16:42:07Z</time>
      </trkpt>
      <trkpt lat="46.96741" lon="-0.91426">
        <ele>115</ele>
        <time>2021-05-03T16:42:23Z</time>
      </trkpt>
      <trkpt lat="46.9675" lon="-0.91438">
        <ele>113</ele>
        <time>2021-05-03T16:42:33Z</time>
      </trkpt>
      <trkpt lat="46.96763" lon="-0.91416">
        <ele>113</ele>
        <time>2021-05-03T16:42:49Z</time>
      </trkpt>
      <trkpt lat="46.96777" lon="-0.91404">
        <ele>112</ele>
        <time>2021-05-03T16:43:02Z</time>
      </trkpt>
      <trkpt lat="46.96792" lon="-0.91387">
        <ele>111</ele>
        <time>2021-05-03T16:43:17Z</time>
      </trkpt>
      <trkpt lat="46.96802" lon="-0.91357">
        <ele>112</ele>
        <time>2021-05-03T16:43:35Z</time>
      </trkpt>
      <trkpt lat="46.96809" lon="-0.91344">
        <ele>112</ele>
        <time>2021-05-03T16:43:44Z</time>
      </trkpt>
      <trkpt lat="46.96806" lon="-0.91326">
        <ele>113</ele>
        <time>2021-05-03T16:43:54Z</time>
      </trkpt>
      <trkpt lat="46.9682" lon="-0.91316">
        <ele>111</ele>
        <time>2021-05-03T16:44:07Z</time>
      </trkpt>
      <trkpt lat="46.96823" lon="-0.91303">
        <ele>111</ele>
        <time>2021-05-03T16:44:14Z</time>
      </trkpt>
      <trkpt lat="46.96831" lon="-0.9126">
        <ele>112</ele>
        <time>2021-05-03T16:44:38Z</time>
      </trkpt>
      <trkpt lat="46.96835" lon="-0.91224">
        <ele>112</ele>
        <time>2021-05-03T16:44:58Z</time>
      </trkpt>
      <trkpt lat="46.9683" lon="-0.91186">
        <ele>113</ele>
        <time>2021-05-03T16:45:20Z</time>
      </trkpt>
      <trkpt lat="46.96825" lon="-0.91181">
        <ele>114</ele>
        <time>2021-05-03T16:45:24Z</time>
      </trkpt>
      <trkpt lat="46.96831" lon="-0.91104">
        <ele>113</ele>
        <time>2021-05-03T16:46:07Z</time>
      </trkpt>
      <trkpt lat="46.96817" lon="-0.91082">
        <ele>117</ele>
        <time>2021-05-03T16:46:23Z</time>
      </trkpt>
      <trkpt lat="46.96819" lon="-0.91058">
        <ele>116</ele>
        <time>2021-05-03T16:46:36Z</time>
      </trkpt>
      <trkpt lat="46.96828" lon="-0.91045">
        <ele>114</ele>
        <time>2021-05-03T16:46:47Z</time>
      </trkpt>
      <trkpt lat="46.96839" lon="-0.91032">
        <ele>112</ele>
        <time>2021-05-03T16:46:58Z</time>
      </trkpt>
      <trkpt lat="46.96843" lon="-0.91009">
        <ele>112</ele>
        <time>2021-05-03T16:47:11Z</time>
      </trkpt>
      <trkpt lat="46.96845" lon="-0.90978">
        <ele>112</ele>
        <time>2021-05-03T16:47:28Z</time>
      </trkpt>
      <trkpt lat="46.96844" lon="-0.90957">
        <ele>112</ele>
        <time>2021-05-03T16:47:39Z</time>
      </trkpt>
      <trkpt lat="46.96847" lon="-0.90934">
        <ele>111</ele>
        <time>2021-05-03T16:47:52Z</time>
      </trkpt>
      <trkpt lat="46.96833" lon="-0.9089">
        <ele>112</ele>
        <time>2021-05-03T16:48:19Z</time>
      </trkpt>
      <trkpt lat="46.96839" lon="-0.9084">
        <ele>110</ele>
        <time>2021-05-03T16:48:46Z</time>
      </trkpt>
      <trkpt lat="46.96833" lon="-0.90807">
        <ele>108</ele>
        <time>2021-05-03T16:49:05Z</time>
      </trkpt>
      <trkpt lat="46.96821" lon="-0.90793">
        <ele>110</ele>
        <time>2021-05-03T16:49:17Z</time>
      </trkpt>
      <trkpt lat="46.96815" lon="-0.90784">
        <ele>110</ele>
        <time>2021-05-03T16:49:24Z</time>
      </trkpt>
      <trkpt lat="46.9681" lon="-0.90776">
        <ele>110</ele>
        <time>2021-05-03T16:49:30Z</time>
      </trkpt>
      <trkpt lat="46.96774" lon="-0.90759">
        <ele>113</ele>
        <time>2021-05-03T16:50:00Z</time>
      </trkpt>
      <trkpt lat="46.96754" lon="-0.90746">
        <ele>113</ele>
        <time>2021-05-03T16:50:18Z</time>
      </trkpt>
      <trkpt lat="46.96731" lon="-0.90733">
        <ele>117</ele>
        <time>2021-05-03T16:50:38Z</time>
      </trkpt>
      <trkpt lat="46.96721" lon="-0.90731">
        <ele>119</ele>
        <time>2021-05-03T16:50:46Z</time>
      </trkpt>
      <trkpt lat="46.96708" lon="-0.90705">
        <ele>120</ele>
        <time>2021-05-03T16:51:03Z</time>
      </trkpt>
      <trkpt lat="46.96704" lon="-0.90681">
        <ele>120</ele>
        <time>2021-05-03T16:51:17Z</time>
      </trkpt>
      <trkpt lat="46.96702" lon="-0.90643">
        <ele>119</ele>
        <time>2021-05-03T16:51:38Z</time>
      </trkpt>
      <trkpt lat="46.96697" lon="-0.90614">
        <ele>119</ele>
        <time>2021-05-03T16:51:54Z</time>
      </trkpt>
      <trkpt lat="46.96686" lon="-0.90596">
        <ele>121</ele>
        <time>2021-05-03T16:52:07Z</time>
      </trkpt>
      <trkpt lat="46.96675" lon="-0.90582">
        <ele>122</ele>
        <time>2021-05-03T16:52:19Z</time>
      </trkpt>
      <trkpt lat="46.96669" lon="-0.90558">
        <ele>121</ele>
        <time>2021-05-03T16:52:33Z</time>
      </trkpt>
      <trkpt lat="46.96658" lon="-0.90544">
        <ele>123</ele>
        <time>2021-05-03T16:52:45Z</time>
      </trkpt>
      <trkpt lat="46.96647" lon="-0.90527">
        <ele>125</ele>
        <time>2021-05-03T16:52:57Z</time>
      </trkpt>
      <trkpt lat="46.96636" lon="-0.90505">
        <ele>126</ele>
        <time>2021-05-03T16:53:12Z</time>
      </trkpt>
      <trkpt lat="46.96628" lon="-0.90478">
        <ele>124</ele>
        <time>2021-05-03T16:53:28Z</time>
      </trkpt>
      <trkpt lat="46.96616" lon="-0.90448">
        <ele>122</ele>
        <time>2021-05-03T16:53:47Z</time>
      </trkpt>
      <trkpt lat="46.96602" lon="-0.90415">
        <ele>118</ele>
        <time>2021-05-03T16:54:09Z</time>
      </trkpt>
      <trkpt lat="46.96595" lon="-0.90377">
        <ele>115</ele>
        <time>2021-05-03T16:54:30Z</time>
      </trkpt>
      <trkpt lat="46.96592" lon="-0.90351">
        <ele>113</ele>
        <time>2021-05-03T16:54:44Z</time>
      </trkpt>
      <trkpt lat="46.96584" lon="-0.90333">
        <ele>111</ele>
        <time>2021-05-03T16:54:56Z</time>
      </trkpt>
      <trkpt lat="46.9657" lon="-0.9031">
        <ele>112</ele>
        <time>2021-05-03T16:55:13Z</time>
      </trkpt>
      <trkpt lat="46.9656" lon="-0.90315">
        <ele>114</ele>
        <time>2021-05-03T16:55:21Z</time>
      </trkpt>
      <trkpt lat="46.96568" lon="-0.90334">
        <ele>114</ele>
        <time>2021-05-03T16:55:34Z</time>
      </trkpt>
      <trkpt lat="46.96567" lon="-0.90344">
        <ele>115</ele>
        <time>2021-05-03T16:55:39Z</time>
      </trkpt>
      <trkpt lat="46.96552" lon="-0.90338">
        <ele>117</ele>
        <time>2021-05-03T16:55:52Z</time>
      </trkpt>
      <trkpt lat="46.96535" lon="-0.90357">
        <ele>124</ele>
        <time>2021-05-03T16:56:09Z</time>
      </trkpt>
      <trkpt lat="46.96523" lon="-0.90361">
        <ele>127</ele>
        <time>2021-05-03T16:56:19Z</time>
      </trkpt>
      <trkpt lat="46.96523" lon="-0.90374">
        <ele>129</ele>
        <time>2021-05-03T16:56:26Z</time>
      </trkpt>
      <trkpt lat="46.96497" lon="-0.90402">
        <ele>140</ele>
        <time>2021-05-03T16:56:52Z</time>
      </trkpt>
      <trkpt lat="46.96451" lon="-0.90375">
        <ele>137</ele>
        <time>2021-05-03T16:57:31Z</time>
      </trkpt>
      <trkpt lat="46.96431" lon="-0.90356">
        <ele>135</ele>
        <time>2021-05-03T16:57:50Z</time>
      </trkpt>
      <trkpt lat="46.96413" lon="-0.9034">
        <ele>135</ele>
        <time>2021-05-03T16:58:07Z</time>
      </trkpt>
      <trkpt lat="46.96398" lon="-0.90296">
        <ele>131</ele>
        <time>2021-05-03T16:58:34Z</time>
      </trkpt>
      <trkpt lat="46.96366" lon="-0.90278">
        <ele>133</ele>
        <time>2021-05-03T16:59:02Z</time>
      </trkpt>
      <trkpt lat="46.9635" lon="-0.90261">
        <ele>135</ele>
        <time>2021-05-03T16:59:17Z</time>
      </trkpt>
      <trkpt lat="46.96332" lon="-0.9024">
        <ele>136</ele>
        <time>2021-05-03T16:59:36Z</time>
      </trkpt>
      <trkpt lat="46.96326" lon="-0.90181">
        <ele>130</ele>
        <time>2021-05-03T17:00:08Z</time>
      </trkpt>
      <trkpt lat="46.96317" lon="-0.90158">
        <ele>128</ele>
        <time>2021-05-03T17:00:23Z</time>
      </trkpt>
      <trkpt lat="46.9631" lon="-0.90139">
        <ele>127</ele>
        <time>2021-05-03T17:00:35Z</time>
      </trkpt>
      <trkpt lat="46.96302" lon="-0.90132">
        <ele>127</ele>
        <time>2021-05-03T17:00:42Z</time>
      </trkpt>
      <trkpt lat="46.96287" lon="-0.90134">
        <ele>128</ele>
        <time>2021-05-03T17:00:54Z</time>
      </trkpt>
      <trkpt lat="46.96264" lon="-0.90136">
        <ele>131</ele>
        <time>2021-05-03T17:01:13Z</time>
      </trkpt>
      <trkpt lat="46.96234" lon="-0.90131">
        <ele>132</ele>
        <time>2021-05-03T17:01:37Z</time>
      </trkpt>
      <trkpt lat="46.96217" lon="-0.90098">
        <ele>131</ele>
        <time>2021-05-03T17:01:59Z</time>
      </trkpt>
      <trkpt lat="46.96206" lon="-0.90073">
        <ele>132</ele>
        <time>2021-05-03T17:02:16Z</time>
      </trkpt>
      <trkpt lat="46.96192" lon="-0.90037">
        <ele>133</ele>
        <time>2021-05-03T17:02:38Z</time>
      </trkpt>
      <trkpt lat="46.96167" lon="-0.89986">
        <ele>135</ele>
        <time>2021-05-03T17:03:13Z</time>
      </trkpt>
      <trkpt lat="46.96159" lon="-0.89967">
        <ele>136</ele>
        <time>2021-05-03T17:03:25Z</time>
      </trkpt>
      <trkpt lat="46.96151" lon="-0.89977">
        <ele>136</ele>
        <time>2021-05-03T17:03:33Z</time>
      </trkpt>
      <trkpt lat="46.96118" lon="-0.89942">
        <ele>137</ele>
        <time>2021-05-03T17:04:06Z</time>
      </trkpt>
      <trkpt lat="46.96075" lon="-0.89931">
        <ele>137</ele>
        <time>2021-05-03T17:04:41Z</time>
      </trkpt>
      <trkpt lat="46.96028" lon="-0.89927">
        <ele>139</ele>
        <time>2021-05-03T17:05:18Z</time>
      </trkpt>
      <trkpt lat="46.95994" lon="-0.89913">
        <ele>139</ele>
        <time>2021-05-03T17:05:47Z</time>
      </trkpt>
      <trkpt lat="46.95967" lon="-0.89897">
        <ele>140</ele>
        <time>2021-05-03T17:06:10Z</time>
      </trkpt>
      <trkpt lat="46.95949" lon="-0.89885">
        <ele>140</ele>
        <time>2021-05-03T17:06:26Z</time>
      </trkpt>
      <trkpt lat="46.95935" lon="-0.89868">
        <ele>140</ele>
        <time>2021-05-03T17:06:40Z</time>
      </trkpt>
      <trkpt lat="46.9593" lon="-0.89844">
        <ele>140</ele>
        <time>2021-05-03T17:06:54Z</time>
      </trkpt>
      <trkpt lat="46.95923" lon="-0.89827">
        <ele>139</ele>
        <time>2021-05-03T17:07:05Z</time>
      </trkpt>
      <trkpt lat="46.9592" lon="-0.89779">
        <ele>139</ele>
        <time>2021-05-03T17:07:31Z</time>
      </trkpt>
      <trkpt lat="46.95914" lon="-0.8974">
        <ele>139</ele>
        <time>2021-05-03T17:07:53Z</time>
      </trkpt>
      <trkpt lat="46.95905" lon="-0.89703">
        <ele>138</ele>
        <time>2021-05-03T17:08:15Z</time>
      </trkpt>
      <trkpt lat="46.95892" lon="-0.89656">
        <ele>137</ele>
        <time>2021-05-03T17:08:42Z</time>
      </trkpt>
      <trkpt lat="46.95924" lon="-0.89631">
        <ele>138</ele>
        <time>2021-05-03T17:09:11Z</time>
      </trkpt>
      <trkpt lat="46.95938" lon="-0.89642">
        <ele>138</ele>
        <time>2021-05-03T17:09:24Z</time>
      </trkpt>
      <trkpt lat="46.95949" lon="-0.89642">
        <ele>139</ele>
        <time>2021-05-03T17:09:33Z</time>
      </trkpt>
      <trkpt lat="46.95956" lon="-0.89637">
        <ele>139</ele>
        <time>2021-05-03T17:09:39Z</time>
      </trkpt>
      <trkpt lat="46.95963" lon="-0.89623">
        <ele>139</ele>
        <time>2021-05-03T17:09:49Z</time>
      </trkpt>
      <trkpt lat="46.95964" lon="-0.89612">
        <ele>138</ele>
        <time>2021-05-03T17:09:55Z</time>
      </trkpt>
      <trkpt lat="46.95962" lon="-0.89603">
        <ele>138</ele>
        <time>2021-05-03T17:10:00Z</time>
      </trkpt>
      <trkpt lat="46.95958" lon="-0.89594">
        <ele>138</ele>
        <time>2021-05-03T17:10:06Z</time>
      </trkpt>
      <trkpt lat="46.95953" lon="-0.89589">
        <ele>138</ele>
        <time>2021-05-03T17:10:11Z</time>
      </trkpt>
      <trkpt lat="46.95945" lon="-0.89581">
        <ele>137</ele>
        <time>2021-05-03T17:10:18Z</time>
      </trkpt>
      <trkpt lat="46.95938" lon="-0.89581">
        <ele>137</ele>
        <time>2021-05-03T17:10:24Z</time>
      </trkpt>
      <trkpt lat="46.9593" lon="-0.89589">
        <ele>137</ele>
        <time>2021-05-03T17:10:32Z</time>
      </trkpt>
      <trkpt lat="46.95918" lon="-0.89559">
        <ele>136</ele>
        <time>2021-05-03T17:10:51Z</time>
      </trkpt>
      <trkpt lat="46.95911" lon="-0.89534">
        <ele>135</ele>
        <time>2021-05-03T17:11:06Z</time>
      </trkpt>
      <trkpt lat="46.95904" lon="-0.89524">
        <ele>134</ele>
        <time>2021-05-03T17:11:13Z</time>
      </trkpt>
      <trkpt lat="46.95898" lon="-0.89501">
        <ele>133</ele>
        <time>2021-05-03T17:11:27Z</time>
      </trkpt>
      <trkpt lat="46.9589" lon="-0.89482">
        <ele>132</ele>
        <time>2021-05-03T17:11:39Z</time>
      </trkpt>
      <trkpt lat="46.95871" lon="-0.89493">
        <ele>132</ele>
        <time>2021-05-03T17:11:55Z</time>
      </trkpt>
      <trkpt lat="46.95842" lon="-0.89562">
        <ele>134</ele>
        <time>2021-05-03T17:12:40Z</time>
      </trkpt>
      <trkpt lat="46.95818" lon="-0.89574">
        <ele>134</ele>
        <time>2021-05-03T17:13:00Z</time>
      </trkpt>
      <trkpt lat="46.9578" lon="-0.89542">
        <ele>135</ele>
        <time>2021-05-03T17:13:35Z</time>
      </trkpt>
      <trkpt lat="46.95759" lon="-0.89521">
        <ele>136</ele>
        <time>2021-05-03T17:13:55Z</time>
      </trkpt>
      <trkpt lat="46.95746" lon="-0.89506">
        <ele>137</ele>
        <time>2021-05-03T17:14:09Z</time>
      </trkpt>
      <trkpt lat="46.95722" lon="-0.89474">
        <ele>138</ele>
        <time>2021-05-03T17:14:35Z</time>
      </trkpt>
      <trkpt lat="46.95705" lon="-0.89473">
        <ele>140</ele>
        <time>2021-05-03T17:14:48Z</time>
      </trkpt>
      <trkpt lat="46.95693" lon="-0.89483">
        <ele>141</ele>
        <time>2021-05-03T17:14:59Z</time>
      </trkpt>
      <trkpt lat="46.95661" lon="-0.89527">
        <ele>143</ele>
        <time>2021-05-03T17:15:34Z</time>
      </trkpt>
      <trkpt lat="46.95656" lon="-0.8953">
        <ele>144</ele>
        <time>2021-05-03T17:15:39Z</time>
      </trkpt>
      <trkpt lat="46.95662" lon="-0.8955">
        <ele>143</ele>
        <time>2021-05-03T17:15:51Z</time>
      </trkpt>
      <trkpt lat="46.95599" lon="-0.89624">
        <ele>148</ele>
        <time>2021-05-03T17:16:55Z</time>
      </trkpt>
      <trkpt lat="46.95541" lon="-0.89631">
        <ele>151</ele>
        <time>2021-05-03T17:17:42Z</time>
      </trkpt>
      <trkpt lat="46.9553" lon="-0.89628">
        <ele>151</ele>
        <time>2021-05-03T17:17:51Z</time>
      </trkpt>
      <trkpt lat="46.95516" lon="-0.89628">
        <ele>152</ele>
        <time>2021-05-03T17:18:02Z</time>
      </trkpt>
      <trkpt lat="46.95501" lon="-0.8962">
        <ele>152</ele>
        <time>2021-05-03T17:18:15Z</time>
      </trkpt>
      <trkpt lat="46.95481" lon="-0.89596">
        <ele>153</ele>
        <time>2021-05-03T17:18:36Z</time>
      </trkpt>
      <trkpt lat="46.95434" lon="-0.89559">
        <ele>155</ele>
        <time>2021-05-03T17:19:18Z</time>
      </trkpt>
      <trkpt lat="46.95392" lon="-0.89525">
        <ele>155</ele>
        <time>2021-05-03T17:19:57Z</time>
      </trkpt>
      <trkpt lat="46.95366" lon="-0.89457">
        <ele>155</ele>
        <time>2021-05-03T17:20:39Z</time>
      </trkpt>
      <trkpt lat="46.95344" lon="-0.89408">
        <ele>155</ele>
        <time>2021-05-03T17:21:11Z</time>
      </trkpt>
      <trkpt lat="46.95381" lon="-0.89381">
        <ele>153</ele>
        <time>2021-05-03T17:21:44Z</time>
      </trkpt>
      <trkpt lat="46.95441" lon="-0.89343">
        <ele>149</ele>
        <time>2021-05-03T17:22:37Z</time>
      </trkpt>
      <trkpt lat="46.95421" lon="-0.89254">
        <ele>148</ele>
        <time>2021-05-03T17:23:28Z</time>
      </trkpt>
      <trkpt lat="46.95419" lon="-0.89239">
        <ele>147</ele>
        <time>2021-05-03T17:23:36Z</time>
      </trkpt>
      <trkpt lat="46.95464" lon="-0.89218">
        <ele>144</ele>
        <time>2021-05-03T17:24:14Z</time>
      </trkpt>
      <trkpt lat="46.95495" lon="-0.89197">
        <ele>141</ele>
        <time>2021-05-03T17:24:42Z</time>
      </trkpt>
      <trkpt lat="46.95509" lon="-0.89175">
        <ele>140</ele>
        <time>2021-05-03T17:24:58Z</time>
      </trkpt>
      <trkpt lat="46.9552" lon="-0.89183">
        <ele>139</ele>
        <time>2021-05-03T17:25:08Z</time>
      </trkpt>
      <trkpt lat="46.95535" lon="-0.89161">
        <ele>138</ele>
        <time>2021-05-03T17:25:25Z</time>
      </trkpt>
      <trkpt lat="46.95555" lon="-0.89137">
        <ele>136</ele>
        <time>2021-05-03T17:25:46Z</time>
      </trkpt>
      <trkpt lat="46.95575" lon="-0.89114">
        <ele>133</ele>
        <time>2021-05-03T17:26:06Z</time>
      </trkpt>
      <trkpt lat="46.95586" lon="-0.89102">
        <ele>132</ele>
        <time>2021-05-03T17:26:17Z</time>
      </trkpt>
      <trkpt lat="46.95601" lon="-0.89099">
        <ele>131</ele>
        <time>2021-05-03T17:26:29Z</time>
      </trkpt>
      <trkpt lat="46.95608" lon="-0.89085">
        <ele>130</ele>
        <time>2021-05-03T17:26:38Z</time>
      </trkpt>
      <trkpt lat="46.95624" lon="-0.8906">
        <ele>128</ele>
        <time>2021-05-03T17:26:57Z</time>
      </trkpt>
      <trkpt lat="46.95668" lon="-0.88991">
        <ele>124</ele>
        <time>2021-05-03T17:27:49Z</time>
      </trkpt>
      <trkpt lat="46.95692" lon="-0.88946">
        <ele>121</ele>
        <time>2021-05-03T17:28:20Z</time>
      </trkpt>
      <trkpt lat="46.9572" lon="-0.88936">
        <ele>120</ele>
        <time>2021-05-03T17:28:43Z</time>
      </trkpt>
      <trkpt lat="46.95705" lon="-0.88902">
        <ele>118</ele>
        <time>2021-05-03T17:29:05Z</time>
      </trkpt>
      <trkpt lat="46.95738" lon="-0.88862">
        <ele>116</ele>
        <time>2021-05-03T17:29:40Z</time>
      </trkpt>
      <trkpt lat="46.9576" lon="-0.88836">
        <ele>115</ele>
        <time>2021-05-03T17:30:02Z</time>
      </trkpt>
      <trkpt lat="46.95764" lon="-0.88816">
        <ele>115</ele>
        <time>2021-05-03T17:30:14Z</time>
      </trkpt>
      <trkpt lat="46.95789" lon="-0.88816">
        <ele>114</ele>
        <time>2021-05-03T17:30:34Z</time>
      </trkpt>
      <trkpt lat="46.95808" lon="-0.88825">
        <ele>115</ele>
        <time>2021-05-03T17:30:50Z</time>
      </trkpt>
      <trkpt lat="46.95824" lon="-0.88817">
        <ele>114</ele>
        <time>2021-05-03T17:31:03Z</time>
      </trkpt>
      <trkpt lat="46.95836" lon="-0.8878">
        <ele>112</ele>
        <time>2021-05-03T17:31:25Z</time>
      </trkpt>
      <trkpt lat="46.95852" lon="-0.8875">
        <ele>111</ele>
        <time>2021-05-03T17:31:46Z</time>
      </trkpt>
      <trkpt lat="46.9586" lon="-0.88713">
        <ele>111</ele>
        <time>2021-05-03T17:32:07Z</time>
      </trkpt>
      <trkpt lat="46.95868" lon="-0.88689">
        <ele>111</ele>
        <time>2021-05-03T17:32:22Z</time>
      </trkpt>
      <trkpt lat="46.95897" lon="-0.88672">
        <ele>112</ele>
        <time>2021-05-03T17:32:47Z</time>
      </trkpt>
    </trkseg>
  </trk>
</gpx>